createdAt,value
2022-08-09T03:55:30.098Z,1027.08
2022-08-09T04:05:40.373Z,1027.23
2022-08-09T04:16:19.672Z,1027.27
2022-08-09T04:25:58.513Z,1027.34
2022-08-09T04:36:05.745Z,1027.41
2022-08-09T04:46:19.313Z,1027.47
2022-08-09T04:56:26.125Z,1027.59
2022-08-09T05:06:35.774Z,1027.71
2022-08-09T05:18:39.623Z,1027.71
2022-08-09T05:28:12.688Z,1027.77
2022-08-09T05:38:22.138Z,1027.86
2022-08-09T05:48:33.011Z,1027.96
2022-08-09T05:58:40.335Z,1027.96
2022-08-09T06:08:52.825Z,1028.01
2022-08-09T06:18:59.925Z,1028.02
2022-08-09T06:29:06.008Z,1028.04
2022-08-09T06:39:12.819Z,1028.17
2022-08-09T06:49:29.189Z,1028.18
2022-08-09T07:00:49.734Z,1028.29
2022-08-09T07:09:57.007Z,1028.28
2022-08-09T07:19:55.446Z,1028.45
2022-08-09T07:30:03.236Z,1028.46
2022-08-09T07:40:10.507Z,1028.41
2022-08-09T07:50:21.667Z,1028.43
2022-08-09T08:00:36.332Z,1028.45
2022-08-09T08:10:48.698Z,1028.42
2022-08-09T08:20:55.834Z,1028.44
2022-08-09T08:31:13.984Z,1028.47
2022-08-09T08:41:14.641Z,1028.41
2022-08-09T08:51:21.298Z,1028.40
2022-08-09T09:01:35.453Z,1028.39
2022-08-09T09:11:41.533Z,1028.35
2022-08-09T09:21:47.857Z,1028.48
2022-08-09T09:32:04.623Z,1028.39
2022-08-09T09:42:12.021Z,1028.32
2022-08-09T09:52:37.481Z,1028.31
2022-08-09T10:02:30.110Z,1028.29
2022-08-09T10:12:36.825Z,1028.27
2022-08-09T10:22:47.539Z,1028.18
2022-08-09T10:32:54.799Z,1028.09
2022-08-09T10:43:02.620Z,1027.99
2022-08-09T10:53:10.979Z,1027.97
2022-08-09T11:03:47.152Z,1027.92
2022-08-09T11:13:49.123Z,1027.91
2022-08-09T11:23:40.008Z,1027.81
2022-08-09T11:33:50.363Z,1027.80
2022-08-09T11:43:57.966Z,1027.92
2022-08-09T11:54:07.067Z,1027.96
2022-08-09T12:04:23.568Z,1028.02
2022-08-09T12:14:36.805Z,1027.84
2022-08-09T12:24:39.099Z,1027.72
2022-08-09T12:34:47.724Z,1027.66
2022-08-09T12:44:54.573Z,1027.65
2022-08-09T12:56:16.204Z,1027.47
2022-08-09T13:05:14.965Z,1027.38
2022-08-09T13:15:21.053Z,1027.38
2022-08-09T13:25:28.402Z,1027.35
2022-08-09T13:35:34.478Z,1027.32
2022-08-09T13:46:44.680Z,1027.36
2022-08-09T13:55:52.931Z,1027.39
2022-08-09T14:06:02.831Z,1027.26
2022-08-09T14:16:10.941Z,1027.25
2022-08-09T14:26:18.640Z,1027.16
2022-08-09T14:36:25.656Z,1027.22
2022-08-09T14:46:55.886Z,1027.38
2022-08-09T14:56:53.702Z,1027.35
2022-08-09T15:06:57.394Z,1027.37
2022-08-09T15:17:04.993Z,1027.29
2022-08-09T15:27:11.663Z,1027.27
2022-08-09T15:37:23.516Z,1027.22
2022-08-09T15:47:31.863Z,1027.12
2022-08-09T15:57:44.558Z,1027.18
2022-08-09T16:07:52.094Z,1027.11
2022-08-09T16:17:58.306Z,1027.10
2022-08-09T16:28:05.467Z,1027.12
2022-08-09T16:38:11.723Z,1027.12
2022-08-09T16:48:38.945Z,1027.07
2022-08-09T16:58:29.492Z,1027.02
2022-08-09T17:15:30.889Z,1027.14
2022-08-09T17:26:53.192Z,1027.21
2022-08-09T18:24:09.919Z,1027.71
2022-08-09T19:06:48.798Z,1028.07
2022-08-09T19:35:26.329Z,1028.27
2022-08-09T19:45:40.438Z,1028.41
2022-08-09T19:56:02.106Z,1028.37
2022-08-09T20:08:37.991Z,1028.39
2022-08-09T20:26:45.239Z,1028.43
2022-08-09T20:42:12.465Z,1028.43
2022-08-09T20:52:22.388Z,1028.42
2022-08-09T21:05:49.678Z,1028.49
2022-08-09T21:14:07.798Z,1028.55
2022-08-09T21:25:38.084Z,1028.66
2022-08-09T21:53:56.613Z,1028.78
2022-08-09T22:13:18.675Z,1028.74
2022-08-09T23:54:55.989Z,1028.81
